createdAt,value
2022-08-21T00:04:00.263Z,62.5
2022-08-21T00:14:00.159Z,62.5
2022-08-21T00:24:00.252Z,62.5
2022-08-21T00:34:00.888Z,62.5
2022-08-21T00:44:00.247Z,62.5
2022-08-21T00:54:00.148Z,62.5
2022-08-21T01:04:00.249Z,63
2022-08-21T01:14:00.354Z,63
2022-08-21T01:24:00.236Z,63
2022-08-21T01:34:00.348Z,63
2022-08-21T01:44:00.232Z,63
2022-08-21T01:54:00.329Z,63
2022-08-21T02:04:00.235Z,62.5
2022-08-21T02:14:00.332Z,62.5
2022-08-21T02:24:00.432Z,62.5
2022-08-21T02:34:00.331Z,62.5
2022-08-21T02:44:00.426Z,62.5
2022-08-21T02:54:00.325Z,62.5
2022-08-21T03:04:00.414Z,62.5
2022-08-21T03:14:00.315Z,62.5
2022-08-21T03:24:00.417Z,62.5
2022-08-21T03:34:00.385Z,62
2022-08-21T03:44:00.406Z,62
2022-08-21T03:54:00.507Z,62
2022-08-21T04:04:00.411Z,61.5
2022-08-21T04:14:00.503Z,61.5
2022-08-21T04:24:00.404Z,61.5
2022-08-21T04:34:00.519Z,61.5
2022-08-21T04:44:00.408Z,61.5
2022-08-21T04:54:00.509Z,61.5
2022-08-21T05:04:00.599Z,61.5
2022-08-21T05:14:00.507Z,61.5
2022-08-21T05:24:00.591Z,61
2022-08-21T05:34:00.494Z,61
2022-08-21T05:44:00.591Z,61
2022-08-21T05:54:00.486Z,60.5
2022-08-21T06:04:01.472Z,60.5
2022-08-21T06:14:00.475Z,60.5
2022-08-21T06:24:00.570Z,60.5
2022-08-21T06:34:00.666Z,60
2022-08-21T06:44:00.575Z,59.5
2022-08-21T06:54:00.683Z,59.5
2022-08-21T07:04:00.564Z,59.5
2022-08-21T07:14:00.661Z,59.5
2022-08-21T07:24:00.557Z,59
2022-08-21T07:34:00.662Z,59
2022-08-21T07:44:00.756Z,58.5
2022-08-21T07:54:00.662Z,58.5
2022-08-21T08:04:00.753Z,58.5
2022-08-21T08:14:00.648Z,58.5
2022-08-21T08:24:00.756Z,58.5
2022-08-21T08:34:00.661Z,58.5
2022-08-21T08:44:00.749Z,57.5
2022-08-21T08:54:00.647Z,57.5
2022-08-21T09:04:00.744Z,56.5
2022-08-21T09:14:00.837Z,58.5
2022-08-21T09:24:00.961Z,59
2022-08-21T09:34:00.853Z,57.5
2022-08-21T09:44:00.738Z,54
2022-08-21T09:54:00.837Z,55
2022-08-21T10:04:00.733Z,57
2022-08-21T10:14:01.550Z,53
2022-08-21T10:24:00.763Z,52
2022-08-21T10:34:00.866Z,51.5
2022-08-21T10:44:00.766Z,51.5
2022-08-21T10:54:00.861Z,51.5
2022-08-21T11:04:00.970Z,51
2022-08-21T11:14:00.860Z,51.5
2022-08-21T11:24:00.961Z,51.5
2022-08-21T11:34:00.859Z,49.5
2022-08-21T11:44:00.966Z,49
2022-08-21T11:54:00.851Z,48.5
2022-08-21T12:04:01.913Z,47.5
2022-08-21T12:14:00.850Z,45.5
2022-08-21T12:24:00.939Z,44
2022-08-21T12:34:00.862Z,43
2022-08-21T12:44:00.960Z,42.5
2022-08-21T12:54:01.049Z,41.5
2022-08-21T13:04:04.242Z,40.5
2022-08-21T13:14:04.718Z,38.5
2022-08-21T13:24:00.939Z,38
2022-08-21T13:34:01.052Z,40
2022-08-21T13:44:00.959Z,39
2022-08-21T13:54:01.052Z,39.5
2022-08-21T14:04:00.954Z,38
2022-08-21T14:14:01.052Z,39.5
2022-08-21T14:24:01.162Z,41
2022-08-21T14:34:01.047Z,41
2022-08-21T14:44:05.799Z,40.5
2022-08-21T14:54:01.053Z,40
2022-08-21T15:04:01.157Z,39
2022-08-21T15:14:01.049Z,39
2022-08-21T15:24:01.136Z,38.5
2022-08-21T15:34:01.034Z,38.5
2022-08-21T15:44:01.136Z,38.5
2022-08-21T15:54:01.231Z,38
2022-08-21T16:04:01.133Z,38
2022-08-21T16:14:01.229Z,38.5
2022-08-21T16:24:01.118Z,38
2022-08-21T16:34:01.222Z,38.5
2022-08-21T16:44:01.143Z,41.5
2022-08-21T16:54:01.424Z,42
2022-08-21T17:04:01.315Z,44
2022-08-21T17:14:01.215Z,47.5
2022-08-21T17:24:01.320Z,49
2022-08-21T17:34:01.211Z,50
2022-08-21T17:44:01.321Z,50.5
2022-08-21T17:54:01.206Z,51.5
2022-08-21T18:04:01.297Z,52
2022-08-21T18:14:05.147Z,52.5
2022-08-21T18:24:01.312Z,52.5
2022-08-21T18:34:01.400Z,53
2022-08-21T18:44:01.352Z,53
2022-08-21T18:54:01.245Z,53
2022-08-21T19:04:01.344Z,53.5
2022-08-21T19:14:01.447Z,54
2022-08-21T19:24:01.348Z,54
2022-08-21T19:34:01.663Z,54
2022-08-21T19:44:01.874Z,54
2022-08-21T19:54:01.441Z,54.5
2022-08-21T20:04:01.427Z,54.5
2022-08-21T20:14:01.432Z,54.5
2022-08-21T20:24:01.322Z,54.5
2022-08-21T20:34:01.438Z,55
2022-08-21T20:44:01.535Z,55.5
2022-08-21T20:54:01.426Z,53
2022-08-21T21:04:01.519Z,52.5
2022-08-21T21:14:01.412Z,52.5
2022-08-21T21:24:01.530Z,52.5
2022-08-21T21:34:01.419Z,53
2022-08-21T21:44:01.514Z,53
2022-08-21T21:54:01.421Z,53.5
2022-08-21T22:04:03.692Z,54
2022-08-21T22:14:01.610Z,54
2022-08-21T22:24:01.509Z,54.5
2022-08-21T22:34:01.602Z,54.5
2022-08-21T22:44:01.674Z,54.5
2022-08-21T22:54:01.796Z,54.5
2022-08-21T23:04:01.506Z,54.5
2022-08-21T23:14:01.620Z,54.5
2022-08-21T23:24:01.501Z,54.5
2022-08-21T23:34:05.758Z,54.5
2022-08-21T23:44:01.703Z,54.5
2022-08-21T23:54:01.609Z,54.5
